sensor_id;sensor_type;location;lat;lon;timestamp;P1;durP1;ratioP1;P2;durP2;ratioP2
62740;SDS011;48790;55.656;37.702;2022-08-19T00:01:18;19.67;;;6.50;;
62740;SDS011;48790;55.656;37.702;2022-08-19T00:03:44;14.60;;;6.30;;
62740;SDS011;48790;55.656;37.702;2022-08-19T00:06:10;19.75;;;6.28;;
62740;SDS011;48790;55.656;37.702;2022-08-19T00:08:37;11.63;;;6.20;;
62740;SDS011;48790;55.656;37.702;2022-08-19T00:11:03;13.52;;;5.72;;
62740;SDS011;48790;55.656;37.702;2022-08-19T00:13:29;21.05;;;5.97;;
62740;SDS011;48790;55.656;37.702;2022-08-19T00:15:55;8.13;;;5.57;;
62740;SDS011;48790;55.656;37.702;2022-08-19T00:18:22;14.32;;;5.65;;
62740;SDS011;48790;55.656;37.702;2022-08-19T00:20:48;15.65;;;5.63;;
62740;SDS011;48790;55.656;37.702;2022-08-19T00:23:14;14.00;;;5.40;;
62740;SDS011;48790;55.656;37.702;2022-08-19T00:25:41;19.67;;;5.65;;
62740;SDS011;48790;55.656;37.702;2022-08-19T00:28:07;10.93;;;5.28;;
62740;SDS011;48790;55.656;37.702;2022-08-19T00:30:33;10.68;;;5.32;;
62740;SDS011;48790;55.656;37.702;2022-08-19T00:32:59;13.02;;;5.63;;
62740;SDS011;48790;55.656;37.702;2022-08-19T00:35:26;17.50;;;5.53;;
62740;SDS011;48790;55.656;37.702;2022-08-19T00:37:52;14.43;;;5.93;;
62740;SDS011;48790;55.656;37.702;2022-08-19T00:40:21;12.13;;;5.80;;
62740;SDS011;48790;55.656;37.702;2022-08-19T00:42:47;15.30;;;5.93;;
62740;SDS011;48790;55.656;37.702;2022-08-19T00:45:15;11.63;;;6.20;;
62740;SDS011;48790;55.656;37.702;2022-08-19T00:47:49;17.35;;;5.68;;
62740;SDS011;48790;55.656;37.702;2022-08-19T00:50:17;11.38;;;5.32;;
62740;SDS011;48790;55.656;37.702;2022-08-19T00:52:45;12.48;;;5.25;;
62740;SDS011;48790;55.656;37.702;2022-08-19T00:55:21;15.45;;;5.78;;
62740;SDS011;48790;55.656;37.702;2022-08-19T00:57:51;16.40;;;5.85;;
62740;SDS011;48790;55.656;37.702;2022-08-19T01:00:20;10.00;;;5.18;;
62740;SDS011;48790;55.656;37.702;2022-08-19T01:02:48;16.85;;;5.75;;
62740;SDS011;48790;55.656;37.702;2022-08-19T01:05:19;14.88;;;5.78;;
62740;SDS011;48790;55.656;37.702;2022-08-19T01:07:49;15.77;;;5.72;;
62740;SDS011;48790;55.656;37.702;2022-08-19T01:10:17;13.18;;;5.50;;
62740;SDS011;48790;55.656;37.702;2022-08-19T01:12:45;11.68;;;5.60;;
62740;SDS011;48790;55.656;37.702;2022-08-19T01:15:12;16.50;;;4.72;;
62740;SDS011;48790;55.656;37.702;2022-08-19T01:17:41;8.27;;;5.25;;
62740;SDS011;48790;55.656;37.702;2022-08-19T01:20:13;11.88;;;5.07;;
62740;SDS011;48790;55.656;37.702;2022-08-19T01:22:59;18.23;;;5.43;;
62740;SDS011;48790;55.656;37.702;2022-08-19T01:25:30;12.15;;;5.05;;
62740;SDS011;48790;55.656;37.702;2022-08-19T01:28:25;10.93;;;5.22;;
62740;SDS011;48790;55.656;37.702;2022-08-19T01:30:52;14.23;;;5.15;;
62740;SDS011;48790;55.656;37.702;2022-08-19T01:33:19;10.55;;;5.10;;
62740;SDS011;48790;55.656;37.702;2022-08-19T01:35:46;13.57;;;5.38;;
62740;SDS011;48790;55.656;37.702;2022-08-19T01:38:21;13.27;;;5.15;;
62740;SDS011;48790;55.656;37.702;2022-08-19T01:40:50;11.40;;;5.45;;
62740;SDS011;48790;55.656;37.702;2022-08-19T01:43:16;15.95;;;5.40;;
62740;SDS011;48790;55.656;37.702;2022-08-19T01:45:44;8.38;;;5.13;;
62740;SDS011;48790;55.656;37.702;2022-08-19T01:48:11;14.90;;;5.15;;
62740;SDS011;48790;55.656;37.702;2022-08-19T01:50:38;17.83;;;5.63;;
62740;SDS011;48790;55.656;37.702;2022-08-19T01:53:05;10.68;;;5.57;;
62740;SDS011;48790;55.656;37.702;2022-08-19T01:55:33;22.10;;;6.20;;
62740;SDS011;48790;55.656;37.702;2022-08-19T01:58:03;14.32;;;5.70;;
62740;SDS011;48790;55.656;37.702;2022-08-19T02:00:32;19.13;;;5.78;;
62740;SDS011;48790;55.656;37.702;2022-08-19T02:02:58;14.23;;;6.10;;
62740;SDS011;48790;55.656;37.702;2022-08-19T02:05:27;12.45;;;6.45;;
62740;SDS011;48790;55.656;37.702;2022-08-19T02:07:57;15.48;;;6.43;;
62740;SDS011;48790;55.656;37.702;2022-08-19T02:10:24;12.60;;;6.10;;
62740;SDS011;48790;55.656;37.702;2022-08-19T02:12:50;21.98;;;6.68;;
62740;SDS011;48790;55.656;37.702;2022-08-19T02:15:17;14.02;;;6.68;;
62740;SDS011;48790;55.656;37.702;2022-08-19T02:17:44;21.00;;;6.80;;
62740;SDS011;48790;55.656;37.702;2022-08-19T02:20:11;16.23;;;6.30;;
62740;SDS011;48790;55.656;37.702;2022-08-19T02:22:38;17.67;;;6.38;;
62740;SDS011;48790;55.656;37.702;2022-08-19T02:25:07;11.43;;;6.30;;
62740;SDS011;48790;55.656;37.702;2022-08-19T02:27:37;16.95;;;6.53;;
62740;SDS011;48790;55.656;37.702;2022-08-19T02:30:05;13.88;;;6.15;;
62740;SDS011;48790;55.656;37.702;2022-08-19T02:32:32;14.45;;;6.28;;
62740;SDS011;48790;55.656;37.702;2022-08-19T02:34:58;16.40;;;6.25;;
62740;SDS011;48790;55.656;37.702;2022-08-19T02:37:24;14.90;;;5.90;;
62740;SDS011;48790;55.656;37.702;2022-08-19T02:40:09;14.05;;;6.03;;
62740;SDS011;48790;55.656;37.702;2022-08-19T02:42:36;12.93;;;6.00;;
62740;SDS011;48790;55.656;37.702;2022-08-19T02:45:02;18.52;;;6.32;;
62740;SDS011;48790;55.656;37.702;2022-08-19T02:47:30;14.90;;;6.57;;
62740;SDS011;48790;55.656;37.702;2022-08-19T02:49:57;13.20;;;6.78;;
62740;SDS011;48790;55.656;37.702;2022-08-19T02:52:23;16.42;;;6.13;;
62740;SDS011;48790;55.656;37.702;2022-08-19T02:54:51;21.90;;;6.65;;
62740;SDS011;48790;55.656;37.702;2022-08-19T02:57:17;20.05;;;6.30;;
62740;SDS011;48790;55.656;37.702;2022-08-19T02:59:43;15.90;;;6.13;;
62740;SDS011;48790;55.656;37.702;2022-08-19T03:02:09;13.02;;;5.97;;
62740;SDS011;48790;55.656;37.702;2022-08-19T03:04:35;14.50;;;6.45;;
62740;SDS011;48790;55.656;37.702;2022-08-19T03:07:01;17.67;;;6.60;;
62740;SDS011;48790;55.656;37.702;2022-08-19T03:09:27;17.08;;;6.30;;
62740;SDS011;48790;55.656;37.702;2022-08-19T03:11:56;17.27;;;6.13;;
62740;SDS011;48790;55.656;37.702;2022-08-19T03:14:22;11.77;;;6.43;;
62740;SDS011;48790;55.656;37.702;2022-08-19T03:16:49;20.17;;;6.75;;
62740;SDS011;48790;55.656;37.702;2022-08-19T03:19:17;18.98;;;6.85;;
62740;SDS011;48790;55.656;37.702;2022-08-19T03:21:45;13.32;;;6.72;;
62740;SDS011;48790;55.656;37.702;2022-08-19T03:24:11;14.82;;;6.55;;
62740;SDS011;48790;55.656;37.702;2022-08-19T03:26:39;21.25;;;7.20;;
62740;SDS011;48790;55.656;37.702;2022-08-19T03:29:07;12.25;;;6.95;;
62740;SDS011;48790;55.656;37.702;2022-08-19T03:31:36;23.67;;;7.60;;
62740;SDS011;48790;55.656;37.702;2022-08-19T03:34:03;19.17;;;7.07;;
62740;SDS011;48790;55.656;37.702;2022-08-19T03:36:29;19.50;;;6.88;;
62740;SDS011;48790;55.656;37.702;2022-08-19T03:38:56;19.27;;;7.18;;
62740;SDS011;48790;55.656;37.702;2022-08-19T03:41:24;21.60;;;6.85;;
62740;SDS011;48790;55.656;37.702;2022-08-19T03:43:55;18.52;;;7.28;;
62740;SDS011;48790;55.656;37.702;2022-08-19T03:46:23;18.40;;;7.28;;
62740;SDS011;48790;55.656;37.702;2022-08-19T03:48:51;19.42;;;7.00;;
62740;SDS011;48790;55.656;37.702;2022-08-19T03:51:29;15.30;;;7.07;;
62740;SDS011;48790;55.656;37.702;2022-08-19T03:53:57;16.83;;;7.55;;
62740;SDS011;48790;55.656;37.702;2022-08-19T03:56:25;15.95;;;7.47;;
62740;SDS011;48790;55.656;37.702;2022-08-19T03:58:53;16.45;;;7.55;;
62740;SDS011;48790;55.656;37.702;2022-08-19T04:01:21;27.17;;;7.20;;
62740;SDS011;48790;55.656;37.702;2022-08-19T04:03:48;19.48;;;7.65;;
62740;SDS011;48790;55.656;37.702;2022-08-19T04:06:16;27.00;;;7.57;;
62740;SDS011;48790;55.656;37.702;2022-08-19T04:08:47;25.83;;;7.97;;
62740;SDS011;48790;55.656;37.702;2022-08-19T04:11:17;18.75;;;7.90;;
62740;SDS011;48790;55.656;37.702;2022-08-19T04:13:47;23.60;;;7.40;;
62740;SDS011;48790;55.656;37.702;2022-08-19T04:16:13;18.10;;;7.53;;
62740;SDS011;48790;55.656;37.702;2022-08-19T04:18:40;25.02;;;7.68;;
62740;SDS011;48790;55.656;37.702;2022-08-19T04:21:06;22.60;;;8.15;;
62740;SDS011;48790;55.656;37.702;2022-08-19T04:23:33;17.60;;;7.97;;
62740;SDS011;48790;55.656;37.702;2022-08-19T04:26:01;18.77;;;7.60;;
62740;SDS011;48790;55.656;37.702;2022-08-19T04:28:28;24.00;;;8.65;;
62740;SDS011;48790;55.656;37.702;2022-08-19T04:30:54;21.40;;;8.40;;
62740;SDS011;48790;55.656;37.702;2022-08-19T04:33:24;20.30;;;7.90;;
62740;SDS011;48790;55.656;37.702;2022-08-19T04:35:51;24.23;;;8.60;;
62740;SDS011;48790;55.656;37.702;2022-08-19T04:38:18;24.75;;;7.80;;
62740;SDS011;48790;55.656;37.702;2022-08-19T04:40:48;19.27;;;8.32;;
62740;SDS011;48790;55.656;37.702;2022-08-19T04:43:35;25.00;;;8.65;;
62740;SDS011;48790;55.656;37.702;2022-08-19T04:46:09;21.30;;;8.25;;
62740;SDS011;48790;55.656;37.702;2022-08-19T04:48:36;25.67;;;8.32;;
62740;SDS011;48790;55.656;37.702;2022-08-19T04:51:06;19.95;;;8.85;;
62740;SDS011;48790;55.656;37.702;2022-08-19T04:53:34;38.53;;;8.75;;
62740;SDS011;48790;55.656;37.702;2022-08-19T04:56:04;35.17;;;8.98;;
62740;SDS011;48790;55.656;37.702;2022-08-19T04:58:35;26.35;;;8.43;;
62740;SDS011;48790;55.656;37.702;2022-08-19T05:01:02;31.73;;;9.63;;
62740;SDS011;48790;55.656;37.702;2022-08-19T05:03:28;26.08;;;8.05;;
62740;SDS011;48790;55.656;37.702;2022-08-19T05:05:58;47.05;;;8.98;;
62740;SDS011;48790;55.656;37.702;2022-08-19T05:08:24;67.00;;;11.30;;
62740;SDS011;48790;55.656;37.702;2022-08-19T05:10:51;21.25;;;8.15;;
62740;SDS011;48790;55.656;37.702;2022-08-19T05:13:18;44.70;;;9.50;;
62740;SDS011;48790;55.656;37.702;2022-08-19T05:15:53;20.73;;;8.23;;
62740;SDS011;48790;55.656;37.702;2022-08-19T05:18:20;24.90;;;8.80;;
62740;SDS011;48790;55.656;37.702;2022-08-19T05:21:08;24.17;;;7.80;;
62740;SDS011;48790;55.656;37.702;2022-08-19T05:23:53;20.02;;;9.00;;
62740;SDS011;48790;55.656;37.702;2022-08-19T05:26:19;18.42;;;8.18;;
62740;SDS011;48790;55.656;37.702;2022-08-19T05:28:45;21.02;;;9.35;;
62740;SDS011;48790;55.656;37.702;2022-08-19T05:31:11;31.33;;;8.85;;
62740;SDS011;48790;55.656;37.702;2022-08-19T05:33:38;25.80;;;8.68;;
62740;SDS011;48790;55.656;37.702;2022-08-19T05:36:05;22.48;;;8.80;;
62740;SDS011;48790;55.656;37.702;2022-08-19T05:38:33;42.25;;;9.05;;
62740;SDS011;48790;55.656;37.702;2022-08-19T05:41:05;39.35;;;9.15;;
62740;SDS011;48790;55.656;37.702;2022-08-19T05:43:33;41.03;;;8.88;;
62740;SDS011;48790;55.656;37.702;2022-08-19T05:45:59;28.58;;;8.50;;
62740;SDS011;48790;55.656;37.702;2022-08-19T05:48:25;20.52;;;7.72;;
62740;SDS011;48790;55.656;37.702;2022-08-19T05:50:52;24.08;;;8.35;;
62740;SDS011;48790;55.656;37.702;2022-08-19T05:53:18;26.55;;;8.07;;
62740;SDS011;48790;55.656;37.702;2022-08-19T05:55:44;24.38;;;8.35;;
62740;SDS011;48790;55.656;37.702;2022-08-19T05:58:10;18.83;;;8.55;;
62740;SDS011;48790;55.656;37.702;2022-08-19T06:00:36;20.27;;;8.32;;
62740;SDS011;48790;55.656;37.702;2022-08-19T06:03:03;21.40;;;8.43;;
62740;SDS011;48790;55.656;37.702;2022-08-19T06:05:30;37.03;;;8.38;;
62740;SDS011;48790;55.656;37.702;2022-08-19T06:07:56;33.75;;;8.68;;
62740;SDS011;48790;55.656;37.702;2022-08-19T06:10:24;22.17;;;7.60;;
62740;SDS011;48790;55.656;37.702;2022-08-19T06:12:51;34.03;;;8.00;;
62740;SDS011;48790;55.656;37.702;2022-08-19T06:15:18;22.88;;;7.47;;
62740;SDS011;48790;55.656;37.702;2022-08-19T06:17:44;33.80;;;8.52;;
62740;SDS011;48790;55.656;37.702;2022-08-19T06:20:10;27.38;;;7.55;;
62740;SDS011;48790;55.656;37.702;2022-08-19T06:22:39;23.92;;;7.50;;
62740;SDS011;48790;55.656;37.702;2022-08-19T06:25:05;18.30;;;6.88;;
62740;SDS011;48790;55.656;37.702;2022-08-19T06:27:32;27.38;;;6.88;;
62740;SDS011;48790;55.656;37.702;2022-08-19T06:29:59;25.05;;;7.13;;
62740;SDS011;48790;55.656;37.702;2022-08-19T06:32:25;27.23;;;7.10;;
62740;SDS011;48790;55.656;37.702;2022-08-19T06:34:51;27.45;;;7.50;;
62740;SDS011;48790;55.656;37.702;2022-08-19T06:37:17;34.17;;;8.25;;
62740;SDS011;48790;55.656;37.702;2022-08-19T06:39:44;28.73;;;7.78;;
62740;SDS011;48790;55.656;37.702;2022-08-19T06:42:11;17.90;;;7.13;;
62740;SDS011;48790;55.656;37.702;2022-08-19T06:44:42;19.27;;;6.95;;
62740;SDS011;48790;55.656;37.702;2022-08-19T06:47:27;26.73;;;6.85;;
62740;SDS011;48790;55.656;37.702;2022-08-19T06:49:57;18.35;;;7.78;;
62740;SDS011;48790;55.656;37.702;2022-08-19T06:52:31;23.52;;;7.25;;
62740;SDS011;48790;55.656;37.702;2022-08-19T06:54:59;21.55;;;7.38;;
62740;SDS011;48790;55.656;37.702;2022-08-19T06:57:26;21.50;;;8.02;;
62740;SDS011;48790;55.656;37.702;2022-08-19T06:59:52;22.20;;;7.03;;
62740;SDS011;48790;55.656;37.702;2022-08-19T07:02:18;25.55;;;7.60;;
62740;SDS011;48790;55.656;37.702;2022-08-19T07:04:45;24.08;;;7.53;;
62740;SDS011;48790;55.656;37.702;2022-08-19T07:07:13;19.27;;;8.13;;
62740;SDS011;48790;55.656;37.702;2022-08-19T07:09:41;18.42;;;7.90;;
62740;SDS011;48790;55.656;37.702;2022-08-19T07:12:09;17.23;;;8.07;;
62740;SDS011;48790;55.656;37.702;2022-08-19T07:14:37;17.98;;;7.20;;
62740;SDS011;48790;55.656;37.702;2022-08-19T07:17:05;22.13;;;7.25;;
62740;SDS011;48790;55.656;37.702;2022-08-19T07:19:36;45.38;;;8.40;;
62740;SDS011;48790;55.656;37.702;2022-08-19T07:22:04;36.97;;;7.95;;
62740;SDS011;48790;55.656;37.702;2022-08-19T07:24:31;41.35;;;8.05;;
62740;SDS011;48790;55.656;37.702;2022-08-19T07:27:00;31.27;;;6.65;;
62740;SDS011;48790;55.656;37.702;2022-08-19T07:29:31;48.85;;;8.15;;
62740;SDS011;48790;55.656;37.702;2022-08-19T07:31:59;42.05;;;7.53;;
62740;SDS011;48790;55.656;37.702;2022-08-19T07:34:27;14.68;;;5.88;;
62740;SDS011;48790;55.656;37.702;2022-08-19T07:36:55;27.58;;;6.90;;
62740;SDS011;48790;55.656;37.702;2022-08-19T07:39:23;26.42;;;6.85;;
62740;SDS011;48790;55.656;37.702;2022-08-19T07:41:55;30.80;;;6.55;;
62740;SDS011;48790;55.656;37.702;2022-08-19T07:44:22;30.50;;;6.30;;
62740;SDS011;48790;55.656;37.702;2022-08-19T07:46:49;50.85;;;6.45;;
62740;SDS011;48790;55.656;37.702;2022-08-19T07:49:18;31.75;;;5.90;;
62740;SDS011;48790;55.656;37.702;2022-08-19T07:51:46;36.05;;;5.78;;
62740;SDS011;48790;55.656;37.702;2022-08-19T07:54:18;30.42;;;6.55;;
62740;SDS011;48790;55.656;37.702;2022-08-19T07:56:45;24.08;;;5.85;;
62740;SDS011;48790;55.656;37.702;2022-08-19T07:59:11;18.65;;;6.07;;
62740;SDS011;48790;55.656;37.702;2022-08-19T08:01:38;18.80;;;5.50;;
62740;SDS011;48790;55.656;37.702;2022-08-19T08:04:05;19.40;;;6.10;;
62740;SDS011;48790;55.656;37.702;2022-08-19T08:06:51;25.02;;;6.28;;
62740;SDS011;48790;55.656;37.702;2022-08-19T08:09:38;26.25;;;6.20;;
62740;SDS011;48790;55.656;37.702;2022-08-19T08:12:11;41.35;;;6.88;;
62740;SDS011;48790;55.656;37.702;2022-08-19T08:14:42;23.58;;;6.22;;
62740;SDS011;48790;55.656;37.702;2022-08-19T08:17:14;17.92;;;6.10;;
62740;SDS011;48790;55.656;37.702;2022-08-19T08:19:41;23.13;;;6.35;;
62740;SDS011;48790;55.656;37.702;2022-08-19T08:22:09;14.60;;;5.93;;
62740;SDS011;48790;55.656;37.702;2022-08-19T08:24:56;22.33;;;6.97;;
62740;SDS011;48790;55.656;37.702;2022-08-19T08:27:24;25.20;;;6.22;;
62740;SDS011;48790;55.656;37.702;2022-08-19T08:29:50;17.02;;;5.70;;
62740;SDS011;48790;55.656;37.702;2022-08-19T08:32:16;23.65;;;6.80;;
62740;SDS011;48790;55.656;37.702;2022-08-19T08:34:43;15.80;;;5.10;;
62740;SDS011;48790;55.656;37.702;2022-08-19T08:37:09;27.60;;;5.38;;
62740;SDS011;48790;55.656;37.702;2022-08-19T08:39:35;17.33;;;4.10;;
62740;SDS011;48790;55.656;37.702;2022-08-19T08:44:53;15.73;;;4.13;;
62740;SDS011;48790;55.656;37.702;2022-08-19T08:47:28;23.15;;;4.57;;
62740;SDS011;48790;55.656;37.702;2022-08-19T08:50:05;15.85;;;4.80;;
62740;SDS011;48790;55.656;37.702;2022-08-19T08:52:42;29.15;;;4.93;;
62740;SDS011;48790;55.656;37.702;2022-08-19T08:55:12;18.17;;;4.47;;
62740;SDS011;48790;55.656;37.702;2022-08-19T09:02:53;19.05;;;4.28;;
62740;SDS011;48790;55.656;37.702;2022-08-19T09:05:21;12.15;;;4.90;;
62740;SDS011;48790;55.656;37.702;2022-08-19T09:07:52;14.45;;;4.40;;
62740;SDS011;48790;55.656;37.702;2022-08-19T09:10:31;25.95;;;5.35;;
62740;SDS011;48790;55.656;37.702;2022-08-19T09:13:06;16.08;;;5.15;;
62740;SDS011;48790;55.656;37.702;2022-08-19T09:15:45;20.33;;;5.43;;
62740;SDS011;48790;55.656;37.702;2022-08-19T09:18:15;12.40;;;5.05;;
62740;SDS011;48790;55.656;37.702;2022-08-19T09:20:43;31.15;;;5.25;;
62740;SDS011;48790;55.656;37.702;2022-08-19T09:23:09;36.78;;;5.85;;
62740;SDS011;48790;55.656;37.702;2022-08-19T09:25:36;29.02;;;5.65;;
62740;SDS011;48790;55.656;37.702;2022-08-19T09:28:02;21.45;;;4.95;;
62740;SDS011;48790;55.656;37.702;2022-08-19T09:30:30;17.45;;;4.50;;
62740;SDS011;48790;55.656;37.702;2022-08-19T09:32:58;21.73;;;4.97;;
62740;SDS011;48790;55.656;37.702;2022-08-19T09:35:26;36.10;;;5.30;;
62740;SDS011;48790;55.656;37.702;2022-08-19T09:37:54;12.18;;;3.50;;
62740;SDS011;48790;55.656;37.702;2022-08-19T09:40:22;11.57;;;3.97;;
62740;SDS011;48790;55.656;37.702;2022-08-19T09:42:49;11.43;;;4.25;;
62740;SDS011;48790;55.656;37.702;2022-08-19T09:45:15;17.38;;;3.50;;
62740;SDS011;48790;55.656;37.702;2022-08-19T09:47:42;15.90;;;3.60;;
62740;SDS011;48790;55.656;37.702;2022-08-19T09:50:09;9.25;;;3.67;;
62740;SDS011;48790;55.656;37.702;2022-08-19T09:52:37;30.58;;;4.30;;
62740;SDS011;48790;55.656;37.702;2022-08-19T09:55:07;28.20;;;4.30;;
62740;SDS011;48790;55.656;37.702;2022-08-19T09:57:34;22.50;;;3.78;;
62740;SDS011;48790;55.656;37.702;2022-08-19T10:00:01;17.63;;;3.80;;
62740;SDS011;48790;55.656;37.702;2022-08-19T10:02:33;28.52;;;4.00;;
62740;SDS011;48790;55.656;37.702;2022-08-19T10:05:00;51.40;;;5.15;;
62740;SDS011;48790;55.656;37.702;2022-08-19T10:07:44;33.17;;;3.90;;
62740;SDS011;48790;55.656;37.702;2022-08-19T10:10:11;26.50;;;4.40;;
62740;SDS011;48790;55.656;37.702;2022-08-19T10:12:37;20.23;;;3.72;;
62740;SDS011;48790;55.656;37.702;2022-08-19T10:15:04;17.35;;;4.03;;
62740;SDS011;48790;55.656;37.702;2022-08-19T10:17:32;22.23;;;3.97;;
62740;SDS011;48790;55.656;37.702;2022-08-19T10:20:00;15.23;;;3.53;;
62740;SDS011;48790;55.656;37.702;2022-08-19T10:22:30;20.00;;;4.10;;
62740;SDS011;48790;55.656;37.702;2022-08-19T10:24:56;17.92;;;3.85;;
62740;SDS011;48790;55.656;37.702;2022-08-19T10:27:22;14.77;;;3.70;;
62740;SDS011;48790;55.656;37.702;2022-08-19T10:29:50;14.57;;;3.70;;
62740;SDS011;48790;55.656;37.702;2022-08-19T10:32:17;8.35;;;3.65;;
62740;SDS011;48790;55.656;37.702;2022-08-19T10:34:43;9.30;;;3.50;;
62740;SDS011;48790;55.656;37.702;2022-08-19T10:37:10;22.75;;;4.00;;
62740;SDS011;48790;55.656;37.702;2022-08-19T10:39:36;15.65;;;3.63;;
62740;SDS011;48790;55.656;37.702;2022-08-19T10:42:06;10.48;;;3.50;;
62740;SDS011;48790;55.656;37.702;2022-08-19T10:44:33;21.27;;;3.65;;
62740;SDS011;48790;55.656;37.702;2022-08-19T10:47:01;20.55;;;3.83;;
62740;SDS011;48790;55.656;37.702;2022-08-19T10:49:28;7.38;;;3.33;;
62740;SDS011;48790;55.656;37.702;2022-08-19T10:51:57;20.60;;;3.70;;
62740;SDS011;48790;55.656;37.702;2022-08-19T10:54:42;17.33;;;3.72;;
62740;SDS011;48790;55.656;37.702;2022-08-19T10:57:30;27.90;;;3.95;;
62740;SDS011;48790;55.656;37.702;2022-08-19T10:59:56;17.60;;;4.10;;
62740;SDS011;48790;55.656;37.702;2022-08-19T11:02:22;21.70;;;4.20;;
62740;SDS011;48790;55.656;37.702;2022-08-19T11:04:49;27.80;;;3.97;;
62740;SDS011;48790;55.656;37.702;2022-08-19T11:07:17;19.25;;;4.18;;
62740;SDS011;48790;55.656;37.702;2022-08-19T11:09:44;14.77;;;3.88;;
62740;SDS011;48790;55.656;37.702;2022-08-19T11:12:12;34.75;;;4.55;;
62740;SDS011;48790;55.656;37.702;2022-08-19T11:14:38;23.95;;;4.15;;
62740;SDS011;48790;55.656;37.702;2022-08-19T11:17:05;21.08;;;4.18;;
62740;SDS011;48790;55.656;37.702;2022-08-19T11:19:31;23.13;;;4.40;;
62740;SDS011;48790;55.656;37.702;2022-08-19T11:21:57;25.58;;;4.03;;
62740;SDS011;48790;55.656;37.702;2022-08-19T11:24:28;21.27;;;3.92;;
62740;SDS011;48790;55.656;37.702;2022-08-19T11:26:58;19.67;;;4.00;;
62740;SDS011;48790;55.656;37.702;2022-08-19T11:29:28;10.13;;;3.80;;
62740;SDS011;48790;55.656;37.702;2022-08-19T11:31:55;22.98;;;4.40;;
62740;SDS011;48790;55.656;37.702;2022-08-19T11:34:22;20.33;;;4.63;;
62740;SDS011;48790;55.656;37.702;2022-08-19T11:36:51;38.67;;;5.13;;
62740;SDS011;48790;55.656;37.702;2022-08-19T11:39:19;41.22;;;5.45;;
62740;SDS011;48790;55.656;37.702;2022-08-19T11:41:47;11.43;;;3.70;;
62740;SDS011;48790;55.656;37.702;2022-08-19T11:44:13;19.65;;;3.80;;
62740;SDS011;48790;55.656;37.702;2022-08-19T11:46:40;19.33;;;4.00;;
62740;SDS011;48790;55.656;37.702;2022-08-19T11:49:07;11.68;;;4.22;;
62740;SDS011;48790;55.656;37.702;2022-08-19T11:51:34;26.52;;;4.38;;
62740;SDS011;48790;55.656;37.702;2022-08-19T11:54:01;17.10;;;4.10;;
62740;SDS011;48790;55.656;37.702;2022-08-19T11:56:27;14.52;;;4.45;;
62740;SDS011;48790;55.656;37.702;2022-08-19T11:58:54;17.38;;;4.70;;
62740;SDS011;48790;55.656;37.702;2022-08-19T12:01:23;13.75;;;4.40;;
62740;SDS011;48790;55.656;37.702;2022-08-19T12:03:51;18.42;;;4.47;;
62740;SDS011;48790;55.656;37.702;2022-08-19T12:06:20;14.68;;;4.40;;
62740;SDS011;48790;55.656;37.702;2022-08-19T12:08:52;17.00;;;4.88;;
62740;SDS011;48790;55.656;37.702;2022-08-19T12:11:19;19.73;;;4.95;;
62740;SDS011;48790;55.656;37.702;2022-08-19T12:13:45;17.85;;;4.78;;
62740;SDS011;48790;55.656;37.702;2022-08-19T12:16:16;18.48;;;4.38;;
62740;SDS011;48790;55.656;37.702;2022-08-19T12:18:44;13.57;;;4.65;;
62740;SDS011;48790;55.656;37.702;2022-08-19T12:21:15;25.15;;;4.70;;
62740;SDS011;48790;55.656;37.702;2022-08-19T12:23:43;15.80;;;4.50;;
62740;SDS011;48790;55.656;37.702;2022-08-19T12:26:11;27.73;;;4.90;;
62740;SDS011;48790;55.656;37.702;2022-08-19T12:28:37;29.77;;;4.53;;
62740;SDS011;48790;55.656;37.702;2022-08-19T12:31:04;18.92;;;4.85;;
62740;SDS011;48790;55.656;37.702;2022-08-19T12:33:30;14.70;;;4.55;;
62740;SDS011;48790;55.656;37.702;2022-08-19T12:36:01;16.27;;;4.65;;
62740;SDS011;48790;55.656;37.702;2022-08-19T12:40:55;39.95;;;5.28;;
62740;SDS011;48790;55.656;37.702;2022-08-19T12:43:21;17.63;;;4.70;;
62740;SDS011;48790;55.656;37.702;2022-08-19T12:45:47;33.60;;;5.80;;
62740;SDS011;48790;55.656;37.702;2022-08-19T12:48:14;21.13;;;4.72;;
62740;SDS011;48790;55.656;37.702;2022-08-19T12:50:43;32.53;;;4.90;;
62740;SDS011;48790;55.656;37.702;2022-08-19T12:53:11;50.17;;;5.32;;
62740;SDS011;48790;55.656;37.702;2022-08-19T12:55:37;14.70;;;4.00;;
62740;SDS011;48790;55.656;37.702;2022-08-19T12:58:03;16.58;;;4.30;;
62740;SDS011;48790;55.656;37.702;2022-08-19T13:00:29;20.30;;;4.20;;
62740;SDS011;48790;55.656;37.702;2022-08-19T13:02:58;53.60;;;5.70;;
62740;SDS011;48790;55.656;37.702;2022-08-19T13:05:27;30.15;;;5.15;;
62740;SDS011;48790;55.656;37.702;2022-08-19T13:07:55;34.80;;;5.00;;
62740;SDS011;48790;55.656;37.702;2022-08-19T13:10:24;25.90;;;4.97;;
62740;SDS011;48790;55.656;37.702;2022-08-19T13:12:53;114.53;;;8.77;;
62740;SDS011;48790;55.656;37.702;2022-08-19T13:15:20;33.97;;;5.88;;
62740;SDS011;48790;55.656;37.702;2022-08-19T13:17:48;48.38;;;5.95;;
62740;SDS011;48790;55.656;37.702;2022-08-19T13:20:17;32.08;;;6.88;;
62740;SDS011;48790;55.656;37.702;2022-08-19T13:22:46;62.70;;;7.32;;
62740;SDS011;48790;55.656;37.702;2022-08-19T13:25:13;24.27;;;5.95;;
62740;SDS011;48790;55.656;37.702;2022-08-19T13:27:41;25.55;;;6.28;;
62740;SDS011;48790;55.656;37.702;2022-08-19T13:30:08;22.50;;;6.88;;
62740;SDS011;48790;55.656;37.702;2022-08-19T13:32:54;23.70;;;6.97;;
62740;SDS011;48790;55.656;37.702;2022-08-19T13:38:10;14.05;;;6.15;;
62740;SDS011;48790;55.656;37.702;2022-08-19T13:40:37;33.67;;;11.07;;
62740;SDS011;48790;55.656;37.702;2022-08-19T13:43:04;25.13;;;10.13;;
62740;SDS011;48790;55.656;37.702;2022-08-19T13:45:31;23.40;;;9.57;;
62740;SDS011;48790;55.656;37.702;2022-08-19T13:47:59;18.98;;;9.95;;
62740;SDS011;48790;55.656;37.702;2022-08-19T13:50:31;26.20;;;13.50;;
62740;SDS011;48790;55.656;37.702;2022-08-19T13:52:58;33.30;;;15.30;;
62740;SDS011;48790;55.656;37.702;2022-08-19T13:55:25;31.33;;;13.55;;
62740;SDS011;48790;55.656;37.702;2022-08-19T13:57:53;20.98;;;11.10;;
62740;SDS011;48790;55.656;37.702;2022-08-19T14:00:25;25.08;;;10.70;;
62740;SDS011;48790;55.656;37.702;2022-08-19T14:02:54;14.45;;;9.23;;
62740;SDS011;48790;55.656;37.702;2022-08-19T14:05:21;18.05;;;7.68;;
62740;SDS011;48790;55.656;37.702;2022-08-19T14:07:48;17.52;;;8.38;;
62740;SDS011;48790;55.656;37.702;2022-08-19T14:10:15;19.98;;;7.90;;
62740;SDS011;48790;55.656;37.702;2022-08-19T14:12:42;26.45;;;9.60;;
62740;SDS011;48790;55.656;37.702;2022-08-19T14:15:09;34.22;;;10.63;;
62740;SDS011;48790;55.656;37.702;2022-08-19T14:17:39;24.95;;;11.48;;
62740;SDS011;48790;55.656;37.702;2022-08-19T14:20:07;23.20;;;11.10;;
62740;SDS011;48790;55.656;37.702;2022-08-19T14:22:35;18.63;;;10.95;;
62740;SDS011;48790;55.656;37.702;2022-08-19T14:25:04;32.33;;;12.05;;
62740;SDS011;48790;55.656;37.702;2022-08-19T14:27:34;21.77;;;14.07;;
62740;SDS011;48790;55.656;37.702;2022-08-19T14:30:03;25.50;;;18.02;;
62740;SDS011;48790;55.656;37.702;2022-08-19T14:32:30;36.17;;;19.75;;
62740;SDS011;48790;55.656;37.702;2022-08-19T14:34:56;35.30;;;20.83;;
62740;SDS011;48790;55.656;37.702;2022-08-19T14:37:23;51.15;;;27.95;;
62740;SDS011;48790;55.656;37.702;2022-08-19T14:39:49;53.78;;;30.08;;
62740;SDS011;48790;55.656;37.702;2022-08-19T14:42:15;47.97;;;28.40;;